Time;durP1;ratioP1;P1;durP2;ratioP2;P2;SDS_P1;SDS_P2;PMS_P1;PMS_P2;Temp;Humidity;BMP_temperature;BMP_pressure;BME280_temperature;BME280_humidity;BME280_pressure;Samples;Min_cycle;Max_cycle;Signal;HPM_P1;HPM_P2
2022/09/27 00:01:16;;;;;;;7.43;3.73;;;11.70;99.90;;;;;;5032117;28;20433;-46
2022/09/27 00:03:42;;;;;;;7.03;3.90;;;11.80;99.90;;;;;;5031628;28;20542;-50
2022/09/27 00:06:10;;;;;;;8.17;3.33;;;11.80;99.90;;;;;;5032216;28;20539;-48
2022/09/27 00:08:37;;;;;;;6.80;3.67;;;11.70;99.90;;;;;;5031291;28;20517;-48
2022/09/27 00:11:04;;;;;;;5.30;2.70;;;11.60;99.90;;;;;;5032237;28;20943;-49
2022/09/27 00:13:30;;;;;;;6.03;3.80;;;11.70;99.90;;;;;;5031443;28;20432;-47
2022/09/27 00:16:03;;;;;;;4.50;2.97;;;11.60;99.90;;;;;;5032207;28;20424;-46
2022/09/27 00:18:30;;;;;;;4.70;2.80;;;11.60;99.90;;;;;;5032225;28;20232;-47
2022/09/27 00:20:56;;;;;;;6.03;2.67;;;11.60;99.90;;;;;;5033181;28;20432;-48
2022/09/27 00:23:21;;;;;;;4.60;3.10;;;11.70;99.90;;;;;;5031534;28;20409;-47
2022/09/27 00:25:57;;;;;;;5.07;3.27;;;11.70;99.90;;;;;;5031980;28;20954;-50
2022/09/27 00:28:24;;;;;;;3.47;2.77;;;11.70;99.90;;;;;;5032146;28;20209;-47
2022/09/27 00:30:50;;;;;;;7.53;3.03;;;11.70;99.90;;;;;;5031949;28;20426;-47
2022/09/27 00:33:16;;;;;;;6.10;3.20;;;11.60;99.90;;;;;;5031319;28;20428;-46
2022/09/27 00:35:43;;;;;;;6.17;3.07;;;11.50;99.90;;;;;;5031849;28;20418;-47
2022/09/27 00:38:09;;;;;;;4.93;2.67;;;11.50;99.90;;;;;;5031866;28;20413;-45
2022/09/27 00:40:35;;;;;;;6.27;2.60;;;11.40;99.90;;;;;;5031512;28;20452;-48
2022/09/27 00:43:01;;;;;;;6.73;3.10;;;11.50;99.90;;;;;;5031118;28;20464;-47
2022/09/27 00:45:26;;;;;;;6.13;2.13;;;11.60;99.90;;;;;;5031552;28;20591;-50
2022/09/27 00:48:02;;;;;;;3.80;2.33;;;11.60;99.90;;;;;;5031688;28;20213;-46
2022/09/27 00:50:39;;;;;;;5.43;2.90;;;11.60;99.90;;;;;;5031626;28;20198;-46
2022/09/27 00:53:13;;;;;;;4.83;3.07;;;11.60;99.90;;;;;;5030600;28;20516;-45
2022/09/27 00:55:43;;;;;;;5.23;2.73;;;11.60;99.90;;;;;;5029902;28;20492;-49
2022/09/27 00:58:13;;;;;;;4.83;3.33;;;11.60;99.90;;;;;;5031451;28;20432;-47
2022/09/27 01:00:44;;;;;;;4.23;3.13;;;11.50;99.90;;;;;;5031305;28;20429;-46
2022/09/27 01:03:14;;;;;;;5.80;3.10;;;11.50;99.90;;;;;;5030703;28;20453;-48
2022/09/27 01:05:41;;;;;;;5.27;3.80;;;11.40;99.90;;;;;;5031045;28;20444;-48
2022/09/27 01:08:08;;;;;;;4.83;3.40;;;11.50;99.90;;;;;;5031046;28;21042;-48
2022/09/27 01:10:43;;;;;;;4.60;3.50;;;11.40;99.90;;;;;;5031274;28;20421;-47
2022/09/27 01:13:28;;;;;;;5.00;3.23;;;11.40;99.90;;;;;;5030329;28;21828;-48
2022/09/27 01:16:12;;;;;;;4.67;3.93;;;11.40;99.90;;;;;;5030823;28;20421;-48
2022/09/27 01:19:08;;;;;;;8.20;3.90;;;11.40;99.90;;;;;;5030907;28;20417;-47
2022/09/27 01:21:43;;;;;;;4.03;3.63;;;11.30;99.90;;;;;;5031716;28;20795;-46
2022/09/27 01:24:18;;;;;;;5.90;3.70;;;11.30;99.90;;;;;;5030044;28;20794;-47
2022/09/27 01:26:57;;;;;;;4.40;3.33;;;11.30;99.90;;;;;;5030865;28;20915;-48
2022/09/27 01:29:36;;;;;;;11.37;3.93;;;11.40;99.90;;;;;;5030930;28;20461;-47
2022/09/27 01:32:07;;;;;;;7.07;4.33;;;11.50;99.90;;;;;;5030683;28;20444;-47
2022/09/27 01:34:53;;;;;;;7.33;4.83;;;11.40;99.90;;;;;;5029935;28;20418;-47
2022/09/27 01:37:30;;;;;;;8.30;5.37;;;11.40;99.90;;;;;;5030601;28;20420;-48
2022/09/27 01:39:58;;;;;;;8.33;5.03;;;11.40;99.90;;;;;;5030753;28;20417;-48
2022/09/27 01:42:47;;;;;;;7.67;6.10;;;11.40;99.90;;;;;;5030198;28;20534;-50
2022/09/27 01:45:20;;;;;;;7.97;6.27;;;11.40;99.90;;;;;;5030227;28;20479;-46
2022/09/27 01:47:59;;;;;;;10.90;8.00;;;11.40;99.90;;;;;;5030502;28;20496;-48
2022/09/27 01:50:34;;;;;;;11.03;8.20;;;11.40;99.90;;;;;;5030476;28;20421;-46
2022/09/27 01:53:12;;;;;;;9.43;7.93;;;11.40;99.90;;;;;;5029880;28;20431;-46
2022/09/27 01:55:38;;;;;;;10.60;8.53;;;11.40;99.90;;;;;;5027873;28;20502;-45
2022/09/27 01:58:15;;;;;;;13.60;9.13;;;11.50;99.90;;;;;;5029230;28;20413;-51
2022/09/27 02:00:46;;;;;;;11.00;9.90;;;11.50;99.90;;;;;;5029986;28;20416;-47
2022/09/27 02:03:23;;;;;;;10.20;9.13;;;11.50;99.90;;;;;;5029366;28;20429;-49
2022/09/27 02:05:58;;;;;;;13.50;10.47;;;11.50;99.90;;;;;;5029982;28;20528;-45
2022/09/27 02:08:41;;;;;;;14.33;11.00;;;11.50;99.90;;;;;;5030055;28;20790;-47
2022/09/27 02:11:12;;;;;;;14.93;11.77;;;11.60;99.90;;;;;;5030245;28;20429;-48
2022/09/27 02:13:53;;;;;;;18.13;12.33;;;11.60;99.90;;;;;;5016524;28;20405;-47
2022/09/27 02:16:36;;;;;;;13.90;11.40;;;11.50;99.90;;;;;;5029827;28;20418;-47
2022/09/27 02:19:45;;;;;;;11.73;10.40;;;11.60;99.90;;;;;;5030076;28;20848;-45
2022/09/27 02:22:16;;;;;;;13.27;10.17;;;11.60;99.90;;;;;;5019665;28;20421;-48
2022/09/27 02:24:49;;;;;;;12.47;11.17;;;11.50;99.90;;;;;;5028882;28;20424;-48
2022/09/27 02:27:23;;;;;;;14.63;11.80;;;11.60;99.90;;;;;;5029961;28;20425;-49
2022/09/27 02:30:19;;;;;;;13.30;9.93;;;11.60;99.90;;;;;;5029978;28;20449;-47
2022/09/27 02:32:45;;;;;;;14.17;9.57;;;11.40;99.90;;;;;;5028809;28;20429;-47
2022/09/27 02:35:25;;;;;;;11.70;9.47;;;11.40;99.90;;;;;;5029435;28;20432;-46
2022/09/27 02:37:51;;;;;;;11.50;8.97;;;11.30;99.90;;;;;;5029922;28;20190;-48
2022/09/27 02:40:16;;;;;;;10.10;8.07;;;11.30;99.90;;;;;;5029841;28;20428;-46
2022/09/27 02:42:43;;;;;;;9.60;8.60;;;11.40;99.90;;;;;;5029170;28;20440;-47
2022/09/27 02:45:10;;;;;;;9.83;6.90;;;11.40;99.90;;;;;;5029707;28;20198;-46
2022/09/27 02:48:09;;;;;;;9.43;6.57;;;11.40;99.90;;;;;;5029372;28;20453;-49
2022/09/27 02:50:45;;;;;;;9.30;6.40;;;11.40;99.90;;;;;;5029796;28;20883;-46
2022/09/27 02:53:25;;;;;;;6.80;5.27;;;11.50;99.90;;;;;;5029274;28;20938;-47
2022/09/27 02:56:06;;;;;;;9.70;5.40;;;11.50;99.90;;;;;;5028682;28;20412;-50
2022/09/27 02:58:35;;;;;;;7.70;4.57;;;11.50;99.90;;;;;;5029667;28;20417;-48
2022/09/27 03:01:10;;;;;;;7.73;5.23;;;11.50;99.90;;;;;;5029599;28;20430;-48
2022/09/27 03:03:45;;;;;;;7.20;5.00;;;11.50;99.90;;;;;;5028995;28;20420;-48
2022/09/27 03:06:15;;;;;;;6.17;4.00;;;11.40;99.90;;;;;;5029242;28;20440;-51
2022/09/27 03:08:40;;;;;;;7.83;4.03;;;11.30;99.90;;;;;;5029611;28;20460;-48
2022/09/27 03:11:06;;;;;;;5.87;3.80;;;11.30;99.90;;;;;;5029641;28;20515;-50
2022/09/27 03:13:33;;;;;;;6.73;4.07;;;11.20;99.90;;;;;;5028830;28;20307;-52
2022/09/27 03:15:59;;;;;;;5.50;4.20;;;11.30;99.90;;;;;;5029509;28;20520;-46
2022/09/27 03:18:26;;;;;;;5.10;4.10;;;11.30;99.90;;;;;;5029441;28;20432;-46
2022/09/27 03:20:52;;;;;;;5.47;4.00;;;11.30;99.90;;;;;;5030078;28;20436;-46
2022/09/27 03:23:18;;;;;;;5.43;3.43;;;11.20;99.90;;;;;;5027350;28;20436;-51
2022/09/27 03:25:45;;;;;;;6.27;3.63;;;11.20;99.90;;;;;;5029228;28;20461;-46
2022/09/27 03:28:11;;;;;;;5.60;3.83;;;11.20;99.90;;;;;;5027869;28;20465;-49
2022/09/27 03:30:37;;;;;;;4.80;3.20;;;11.20;99.90;;;;;;5029427;28;21021;-46
2022/09/27 03:33:03;;;;;;;4.43;3.17;;;11.20;99.90;;;;;;5028659;28;20425;-46
2022/09/27 03:35:29;;;;;;;6.20;3.30;;;11.20;99.90;;;;;;5029027;28;20198;-50
2022/09/27 03:37:54;;;;;;;4.50;3.27;;;11.20;99.90;;;;;;5029450;28;20778;-50
2022/09/27 03:40:20;;;;;;;3.30;3.00;;;11.10;99.90;;;;;;5029364;28;20433;-48
2022/09/27 03:42:48;;;;;;;4.47;4.07;;;11.20;99.90;;;;;;5029052;28;20194;-47
2022/09/27 03:45:14;;;;;;;4.37;3.50;;;11.10;99.90;;;;;;5032898;28;20551;-50
2022/09/27 03:47:40;;;;;;;6.43;3.40;;;11.00;99.90;;;;;;5032625;28;20457;-48
2022/09/27 03:50:07;;;;;;;5.57;3.80;;;11.00;99.90;;;;;;5032523;28;20639;-47
2022/09/27 03:52:33;;;;;;;4.70;3.60;;;11.00;99.90;;;;;;5032366;28;20421;-47
2022/09/27 03:54:59;;;;;;;4.67;3.70;;;10.90;99.90;;;;;;5031210;28;20422;-47
2022/09/27 03:57:25;;;;;;;5.80;4.20;;;11.00;99.90;;;;;;5032598;28;20420;-46
2022/09/27 03:59:51;;;;;;;3.90;3.57;;;11.00;99.90;;;;;;5032542;28;20429;-45
2022/09/27 04:02:17;;;;;;;4.20;3.20;;;11.00;99.90;;;;;;5032443;28;20210;-50
2022/09/27 04:04:43;;;;;;;5.63;3.40;;;11.00;99.90;;;;;;5031409;28;20926;-48
2022/09/27 04:07:09;;;;;;;5.20;3.33;;;11.00;99.90;;;;;;5032434;28;20194;-48
2022/09/27 04:09:36;;;;;;;7.13;3.93;;;10.90;99.90;;;;;;5032290;28;20469;-47
2022/09/27 04:12:03;;;;;;;6.77;4.07;;;10.90;99.90;;;;;;5032309;28;20426;-49
2022/09/27 04:14:28;;;;;;;11.10;6.37;;;10.90;99.90;;;;;;5031665;28;20430;-46
2022/09/27 04:16:54;;;;;;;9.30;5.70;;;10.90;99.90;;;;;;5032363;28;20475;-48
2022/09/27 04:19:20;;;;;;;9.50;6.33;;;10.80;99.90;;;;;;5032843;28;20278;-49
2022/09/27 04:21:45;;;;;;;9.50;7.57;;;10.80;99.90;;;;;;5032131;28;20225;-46
2022/09/27 04:24:11;;;;;;;9.20;7.70;;;10.80;99.90;;;;;;5031357;28;20205;-46
2022/09/27 04:26:38;;;;;;;13.20;9.30;;;10.90;99.90;;;;;;5032032;28;20197;-48
2022/09/27 04:29:04;;;;;;;9.87;8.80;;;10.90;99.90;;;;;;5032018;28;20260;-46
2022/09/27 04:31:30;;;;;;;10.97;9.03;;;11.00;99.90;;;;;;5032070;28;20436;-47
2022/09/27 04:33:57;;;;;;;10.70;9.00;;;10.90;99.90;;;;;;5029645;28;21026;-49
2022/09/27 04:36:25;;;;;;;11.07;8.83;;;10.90;99.90;;;;;;5032067;28;20194;-48
2022/09/27 04:38:51;;;;;;;11.83;8.60;;;11.00;99.90;;;;;;5031785;28;20439;-47
2022/09/27 04:41:17;;;;;;;14.70;9.33;;;11.00;99.90;;;;;;5031838;28;21302;-46
2022/09/27 04:43:43;;;;;;;13.63;9.67;;;10.90;99.90;;;;;;5030786;28;20433;-48
2022/09/27 04:46:08;;;;;;;13.53;9.90;;;10.90;99.90;;;;;;5031805;28;20199;-46
2022/09/27 04:48:34;;;;;;;11.07;9.93;;;10.90;99.90;;;;;;5030012;28;20774;-46
2022/09/27 04:51:01;;;;;;;14.83;9.60;;;10.80;99.90;;;;;;5031715;28;20225;-49
2022/09/27 04:53:31;;;;;;;9.93;8.93;;;10.90;99.90;;;;;;5029798;28;20190;-50
2022/09/27 04:55:57;;;;;;;10.23;7.63;;;10.80;99.90;;;;;;5031149;28;20425;-47
2022/09/27 04:58:24;;;;;;;11.73;9.23;;;10.90;99.90;;;;;;5031304;28;20433;-49
2022/09/27 05:00:53;;;;;;;9.77;8.67;;;10.80;99.90;;;;;;5031277;28;20747;-47
2022/09/27 05:03:19;;;;;;;10.77;8.50;;;10.80;99.90;;;;;;5030580;28;20439;-46
2022/09/27 05:05:44;;;;;;;12.60;8.30;;;10.80;99.90;;;;;;5031235;28;20433;-47
2022/09/27 05:08:10;;;;;;;10.40;8.40;;;10.80;99.90;;;;;;5031111;28;20265;-45
2022/09/27 05:10:36;;;;;;;10.33;8.20;;;10.80;99.90;;;;;;5031299;28;20198;-49
2022/09/27 05:13:02;;;;;;;10.10;7.00;;;10.80;99.90;;;;;;5030443;28;20504;-49
2022/09/27 05:15:27;;;;;;;9.80;7.40;;;10.90;99.90;;;;;;5030790;28;20194;-46
2022/09/27 05:17:53;;;;;;;11.40;7.97;;;10.80;99.90;;;;;;5031161;28;20256;-46
2022/09/27 05:20:19;;;;;;;11.20;7.70;;;10.80;99.90;;;;;;5031727;28;20212;-46
2022/09/27 05:22:45;;;;;;;11.00;8.47;;;10.80;99.90;;;;;;5030396;28;20229;-45
2022/09/27 05:25:11;;;;;;;11.40;7.70;;;10.70;99.90;;;;;;5030791;28;20428;-49
2022/09/27 05:27:37;;;;;;;10.90;7.10;;;10.70;99.90;;;;;;5030782;28;20517;-46
2022/09/27 05:30:06;;;;;;;8.97;6.83;;;10.70;99.90;;;;;;5030551;28;20417;-48
2022/09/27 05:32:33;;;;;;;10.30;7.77;;;10.70;99.90;;;;;;5030705;28;20794;-49
2022/09/27 05:34:59;;;;;;;8.23;6.80;;;10.70;99.90;;;;;;5030059;28;20424;-46
2022/09/27 05:37:25;;;;;;;8.40;6.47;;;10.70;99.90;;;;;;5030500;28;20413;-49
2022/09/27 05:39:50;;;;;;;8.57;5.90;;;10.60;99.90;;;;;;5028030;28;20432;-49
2022/09/27 05:42:17;;;;;;;8.63;6.70;;;10.60;99.90;;;;;;5029358;28;20178;-48
2022/09/27 05:44:46;;;;;;;7.77;5.80;;;10.70;99.90;;;;;;5029157;28;20178;-47
2022/09/27 05:47:12;;;;;;;8.80;7.10;;;10.60;99.90;;;;;;5030547;28;20432;-46
2022/09/27 05:49:39;;;;;;;8.50;6.33;;;10.60;99.90;;;;;;5030492;28;20606;-46
2022/09/27 05:52:06;;;;;;;7.53;6.40;;;10.60;99.90;;;;;;5030656;28;20859;-48
2022/09/27 05:54:32;;;;;;;8.83;7.00;;;10.70;99.90;;;;;;5028844;28;20429;-49
2022/09/27 05:56:59;;;;;;;8.10;7.30;;;10.60;99.90;;;;;;5030406;28;20471;-50
2022/09/27 05:59:26;;;;;;;10.70;7.90;;;10.60;99.90;;;;;;5030241;28;20471;-49
2022/09/27 06:01:52;;;;;;;10.77;7.67;;;10.60;99.90;;;;;;5030315;28;21073;-46
2022/09/27 06:04:19;;;;;;;10.10;8.20;;;10.60;99.90;;;;;;5029825;28;20436;-50
2022/09/27 06:06:45;;;;;;;9.90;7.87;;;10.50;99.90;;;;;;5029189;28;20512;-46
2022/09/27 06:09:12;;;;;;;12.93;7.40;;;10.50;99.90;;;;;;5030201;28;20611;-48
2022/09/27 06:11:37;;;;;;;12.90;6.90;;;10.50;99.90;;;;;;5029893;28;20468;-47
2022/09/27 06:14:03;;;;;;;8.87;7.20;;;10.60;99.90;;;;;;5029465;28;20981;-47
2022/09/27 06:16:29;;;;;;;7.40;6.23;;;10.60;99.90;;;;;;5029991;28;20183;-49
2022/09/27 06:18:56;;;;;;;9.00;5.50;;;10.60;99.90;;;;;;5030117;28;20432;-49
2022/09/27 06:21:23;;;;;;;8.13;5.10;;;10.70;99.90;;;;;;5030801;28;20664;-46
2022/09/27 06:23:49;;;;;;;10.37;5.10;;;10.60;99.90;;;;;;5028083;28;20454;-47
2022/09/27 06:26:15;;;;;;;6.80;5.53;;;10.60;99.90;;;;;;5029672;28;20429;-50
2022/09/27 06:28:41;;;;;;;6.90;4.90;;;10.50;99.90;;;;;;5030009;28;20989;-48
2022/09/27 06:31:07;;;;;;;8.13;5.53;;;10.50;99.90;;;;;;5029811;28;20467;-46
2022/09/27 06:33:34;;;;;;;7.47;6.00;;;10.60;99.90;;;;;;5029359;28;20182;-48
2022/09/27 06:36:01;;;;;;;6.07;4.77;;;10.50;99.90;;;;;;5029815;28;20413;-49
2022/09/27 06:38:27;;;;;;;9.47;4.63;;;10.50;99.90;;;;;;5028676;28;20413;-48
2022/09/27 06:40:54;;;;;;;4.60;4.20;;;10.60;99.90;;;;;;5029427;28;20424;-48
2022/09/27 06:43:20;;;;;;;5.10;3.90;;;10.60;99.90;;;;;;5027990;28;20192;-46
2022/09/27 06:45:46;;;;;;;6.27;5.07;;;10.60;99.90;;;;;;5029780;28;20935;-46
2022/09/27 06:48:15;;;;;;;8.37;4.27;;;10.60;99.90;;;;;;5029720;28;20464;-46
2022/09/27 06:50:43;;;;;;;5.37;4.00;;;10.50;99.90;;;;;;5029718;28;20419;-46
2022/09/27 06:53:10;;;;;;;5.70;4.30;;;10.50;99.90;;;;;;5029068;28;20429;-46
2022/09/27 06:55:37;;;;;;;5.23;3.60;;;10.50;99.90;;;;;;5028475;28;20417;-49
2022/09/27 07:00:51;;;;;;;9.83;3.80;;;10.50;99.90;;;;;;5029717;28;20421;-46
2022/09/27 07:03:16;;;;;;;4.00;2.90;;;10.50;99.90;;;;;;5028878;28;20575;-47
2022/09/27 07:05:42;;;;;;;4.43;2.63;;;10.50;99.90;;;;;;5029497;28;20524;-47
2022/09/27 07:08:11;;;;;;;4.87;3.10;;;10.50;99.90;;;;;;5029181;28;20475;-47
2022/09/27 07:10:39;;;;;;;3.47;2.30;;;10.40;99.90;;;;;;5029672;28;20194;-47
2022/09/27 07:13:06;;;;;;;6.27;2.93;;;10.50;99.90;;;;;;5028828;28;20436;-47
2022/09/27 07:15:35;;;;;;;4.60;2.80;;;10.40;99.90;;;;;;5029568;28;20842;-46
2022/09/27 07:18:02;;;;;;;3.27;2.00;;;10.50;99.90;;;;;;5031749;28;20475;-50
2022/09/27 07:20:30;;;;;;;2.60;2.40;;;10.60;99.90;;;;;;5033758;28;20439;-47
2022/09/27 07:22:56;;;;;;;6.33;2.17;;;10.60;99.90;;;;;;5032645;28;20432;-47
2022/09/27 07:25:23;;;;;;;3.93;2.47;;;10.60;99.90;;;;;;5033412;28;20439;-48
2022/09/27 07:27:51;;;;;;;5.20;2.30;;;10.70;99.90;;;;;;5033136;28;20555;-46
2022/09/27 07:30:18;;;;;;;3.83;1.90;;;10.70;99.90;;;;;;5033234;28;20480;-48
2022/09/27 07:32:44;;;;;;;3.50;1.90;;;10.60;99.90;;;;;;5032259;28;20461;-47
2022/09/27 07:35:11;;;;;;;3.30;1.87;;;10.60;99.90;;;;;;5032815;28;20907;-50
2022/09/27 07:37:37;;;;;;;2.83;2.23;;;10.60;99.90;;;;;;5033007;28;20425;-50
2022/09/27 07:40:07;;;;;;;3.93;2.20;;;10.60;99.90;;;;;;5033084;28;20436;-46
2022/09/27 07:42:33;;;;;;;3.53;2.80;;;10.70;99.90;;;;;;5032873;28;20429;-46
2022/09/27 07:44:59;;;;;;;6.90;3.07;;;10.80;99.90;;;;;;5032545;28;20427;-49
2022/09/27 07:47:26;;;;;;;4.10;2.93;;;10.70;99.90;;;;;;5032732;28;20640;-48
2022/09/27 07:49:52;;;;;;;3.20;3.00;;;10.70;99.90;;;;;;5031483;28;20240;-49
2022/09/27 07:52:18;;;;;;;3.10;2.33;;;10.80;99.90;;;;;;5032648;28;20445;-48
2022/09/27 07:54:45;;;;;;;4.37;2.80;;;10.80;99.90;;;;;;5031214;28;20441;-47
2022/09/27 07:57:11;;;;;;;7.80;3.80;;;10.80;99.90;;;;;;5032586;28;20436;-51
2022/09/27 07:59:36;;;;;;;4.73;3.10;;;10.90;99.90;;;;;;5032628;28;20769;-48
2022/09/27 08:02:02;;;;;;;4.70;3.30;;;10.90;99.90;;;;;;5032383;28;20433;-52
2022/09/27 08:04:28;;;;;;;3.90;3.50;;;10.90;99.90;;;;;;5031643;28;20645;-46
2022/09/27 08:06:54;;;;;;;3.30;3.00;;;10.90;99.90;;;;;;5032231;28;20821;-48
2022/09/27 08:09:20;;;;;;;2.80;2.60;;;11.00;99.90;;;;;;5032478;28;20550;-50
2022/09/27 08:11:47;;;;;;;4.50;2.70;;;11.00;99.90;;;;;;5032286;28;20427;-50
2022/09/27 08:14:13;;;;;;;4.60;2.60;;;10.90;99.90;;;;;;5031614;28;20179;-47
2022/09/27 08:16:40;;;;;;;2.37;2.10;;;10.90;99.90;;;;;;5031996;28;20449;-48
2022/09/27 08:19:06;;;;;;;6.00;2.27;;;10.90;99.90;;;;;;5032195;28;20842;-50
2022/09/27 08:21:32;;;;;;;2.50;1.90;;;10.90;99.90;;;;;;5032733;28;20571;-46
2022/09/27 08:23:58;;;;;;;4.17;1.60;;;10.90;99.90;;;;;;5031587;28;20460;-48
2022/09/27 08:26:26;;;;;;;4.53;1.60;;;10.90;99.90;;;;;;5032051;28;21152;-49
2022/09/27 08:28:52;;;;;;;2.93;2.33;;;11.00;99.90;;;;;;5031247;28;20891;-48
2022/09/27 08:31:18;;;;;;;3.97;2.20;;;10.90;99.90;;;;;;5047134;28;20481;-51
2022/09/27 08:33:49;;;;;;;3.13;2.30;;;10.90;99.90;;;;;;5031581;28;20672;-48
2022/09/27 08:36:14;;;;;;;3.27;2.10;;;10.80;99.90;;;;;;5031761;28;20421;-51
2022/09/27 08:38:40;;;;;;;3.53;2.23;;;10.90;99.90;;;;;;5030620;28;20436;-48
2022/09/27 08:41:14;;;;;;;6.90;3.17;;;10.80;99.90;;;;;;5031760;28;20198;-52
2022/09/27 08:44:05;;;;;;;3.60;2.77;;;10.90;99.90;;;;;;5031092;28;20533;-52
2022/09/27 08:47:01;;;;;;;2.60;2.40;;;11.10;99.90;;;;;;5031584;28;20425;-47
2022/09/27 08:49:43;;;;;;;4.27;2.83;;;11.20;99.90;;;;;;5031522;28;20961;-48
2022/09/27 08:52:26;;;;;;;4.10;2.50;;;11.40;99.90;;;;;;5031331;28;20484;-48
2022/09/27 08:54:54;;;;;;;3.50;2.50;;;11.40;99.90;;;;;;5030215;28;20904;-49
2022/09/27 08:57:22;;;;;;;4.67;2.80;;;11.50;99.90;;;;;;5031539;28;20510;-48
2022/09/27 09:00:03;;;;;;;2.93;2.73;;;11.60;99.90;;;;;;5031427;28;20491;-47
2022/09/27 09:02:29;;;;;;;2.67;2.47;;;11.50;99.90;;;;;;5031067;28;20421;-49
2022/09/27 09:05:18;;;;;;;3.53;2.63;;;11.50;99.90;;;;;;5030640;28;20437;-49
2022/09/27 09:08:05;;;;;;;6.93;2.47;;;11.50;99.90;;;;;;5021610;28;20197;-48
2022/09/27 09:13:50;;;;;;;2.97;2.53;;;11.70;99.90;;;;;;5029624;28;20743;-46
2022/09/27 09:16:43;;;;;;;3.20;2.90;;;11.70;99.90;;;;;;5020511;28;20544;-48
2022/09/27 09:19:11;;;;;;;3.10;2.50;;;11.60;99.90;;;;;;5030956;28;20432;-49
2022/09/27 09:21:49;;;;;;;3.53;2.50;;;11.50;99.90;;;;;;5030223;28;20444;-48
2022/09/27 09:24:38;;;;;;;4.90;2.67;;;11.60;99.90;;;;;;5030326;28;20413;-47
2022/09/27 09:27:18;;;;;;;3.40;2.77;;;11.60;99.90;;;;;;5030865;28;20432;-50
2022/09/27 09:30:13;;;;;;;2.93;2.70;;;11.50;99.90;;;;;;5030520;28;21014;-50
2022/09/27 09:32:49;;;;;;;2.83;2.63;;;11.50;99.90;;;;;;5029565;28;20433;-48
2022/09/27 09:35:22;;;;;;;3.10;2.80;;;11.40;99.90;;;;;;5030788;28;20487;-48
2022/09/27 09:37:58;;;;;;;3.80;2.80;;;11.40;99.90;;;;;;5030623;28;20514;-47
2022/09/27 09:40:26;;;;;;;4.97;2.30;;;11.40;99.90;;;;;;5030831;28;20480;-47
2022/09/27 09:42:56;;;;;;;2.70;2.50;;;11.30;99.90;;;;;;5029987;28;20429;-50
2022/09/27 09:45:24;;;;;;;4.00;3.80;;;11.20;99.90;;;;;;5030555;28;20559;-48
2022/09/27 09:48:14;;;;;;;2.40;2.00;;;11.20;99.90;;;;;;5030402;28;20511;-50
2022/09/27 09:50:45;;;;;;;2.87;2.53;;;11.10;99.90;;;;;;5030257;28;20971;-47
2022/09/27 09:53:19;;;;;;;2.50;2.30;;;11.10;99.90;;;;;;5028733;28;20817;-46
2022/09/27 09:56:02;;;;;;;2.70;2.20;;;11.10;99.90;;;;;;5029329;28;20440;-47
2022/09/27 09:58:35;;;;;;;2.67;2.13;;;11.00;99.90;;;;;;5030293;28;20482;-49
2022/09/27 10:01:17;;;;;;;3.23;2.13;;;11.00;99.90;;;;;;5030171;28;20490;-50
2022/09/27 10:03:43;;;;;;;2.80;2.50;;;11.20;99.90;;;;;;5029791;28;20798;-47
2022/09/27 10:06:10;;;;;;;6.00;4.00;;;11.20;99.90;;;;;;5029921;28;20457;-50
2022/09/27 10:08:36;;;;;;;4.90;2.67;;;11.30;99.90;;;;;;5030074;28;20234;-46
2022/09/27 10:11:02;;;;;;;4.97;3.20;;;11.30;99.90;;;;;;5030275;28;20853;-49
2022/09/27 10:13:34;;;;;;;3.13;2.93;;;11.20;99.90;;;;;;5029190;28;20735;-48
2022/09/27 10:16:07;;;;;;;4.87;3.70;;;11.30;99.90;;;;;;5029007;28;20425;-46
2022/09/27 10:18:37;;;;;;;4.00;3.70;;;11.20;99.90;;;;;;5030063;28;20527;-49
2022/09/27 10:21:20;;;;;;;4.30;3.87;;;11.20;99.90;;;;;;5031270;28;20528;-48
2022/09/27 10:24:08;;;;;;;4.73;3.70;;;11.20;99.90;;;;;;5029290;28;20487;-49
2022/09/27 10:26:36;;;;;;;3.77;3.47;;;11.30;99.90;;;;;;5030178;28;20460;-47
2022/09/27 10:29:16;;;;;;;3.63;3.33;;;11.30;99.90;;;;;;5028620;28;20464;-50
2022/09/27 10:31:46;;;;;;;3.30;3.00;;;11.40;99.90;;;;;;5029932;28;20928;-49
2022/09/27 10:34:31;;;;;;;3.70;3.43;;;11.40;99.90;;;;;;5028902;28;20942;-46
2022/09/27 10:37:16;;;;;;;3.57;3.10;;;11.40;99.90;;;;;;5030032;28;20904;-48
2022/09/27 10:39:47;;;;;;;4.00;2.97;;;11.40;99.90;;;;;;5029854;28;20932;-48
2022/09/27 10:42:35;;;;;;;3.70;3.37;;;11.50;99.90;;;;;;5029838;28;20425;-47
2022/09/27 10:45:29;;;;;;;3.47;3.10;;;11.50;99.90;;;;;;5029415;28;20429;-46
2022/09/27 10:47:55;;;;;;;3.13;2.83;;;11.60;99.90;;;;;;5029810;28;20472;-48
2022/09/27 10:50:30;;;;;;;3.33;3.13;;;11.60;99.90;;;;;;5029615;28;20935;-47
2022/09/27 10:53:17;;;;;;;2.50;2.30;;;11.50;99.90;;;;;;5031317;28;20829;-50
2022/09/27 10:55:47;;;;;;;3.83;3.37;;;11.50;99.90;;;;;;5032777;28;20425;-48
2022/09/27 10:58:25;;;;;;;4.23;2.80;;;11.60;99.90;;;;;;5033986;28;20794;-47
2022/09/27 11:01:02;;;;;;;3.57;3.20;;;11.80;99.90;;;;;;5033652;28;20425;-46
2022/09/27 11:03:30;;;;;;;3.70;3.40;;;11.90;99.90;;;;;;5031611;28;20421;-47
2022/09/27 11:05:58;;;;;;;3.60;3.10;;;12.00;99.90;;;;;;5033435;28;20439;-46
2022/09/27 11:08:30;;;;;;;2.93;2.73;;;12.10;99.90;;;;;;5033529;28;20461;-48
2022/09/27 11:11:02;;;;;;;3.13;2.43;;;12.10;99.90;;;;;;5033439;28;20444;-48
2022/09/27 11:13:31;;;;;;;3.20;2.67;;;12.20;99.90;;;;;;5032840;28;20424;-47
2022/09/27 11:16:16;;;;;;;3.27;2.23;;;12.30;99.90;;;;;;5033093;28;20425;-49
2022/09/27 11:19:20;;;;;;;2.50;2.30;;;12.40;99.90;;;;;;5033604;28;20436;-48
2022/09/27 11:21:55;;;;;;;2.57;2.40;;;12.40;99.90;;;;;;5018752;28;20447;-46
2022/09/27 11:24:34;;;;;;;2.53;2.20;;;12.40;99.90;;;;;;5047445;28;20494;-48
2022/09/27 11:27:26;;;;;;;2.10;1.90;;;12.40;99.90;;;;;;5033307;28;20429;-47
2022/09/27 11:29:58;;;;;;;2.43;1.80;;;12.50;99.90;;;;;;5031839;28;20468;-48
2022/09/27 11:32:42;;;;;;;4.00;2.10;;;12.40;99.90;;;;;;5032898;28;20439;-47
2022/09/27 11:35:32;;;;;;;1.80;1.57;;;12.40;99.90;;;;;;5033044;28;20413;-49
2022/09/27 11:38:16;;;;;;;2.30;1.67;;;12.30;99.90;;;;;;5033121;28;20428;-48
2022/09/27 11:40:51;;;;;;;1.70;1.60;;;12.20;99.90;;;;;;5032947;28;20913;-51
2022/09/27 11:43:26;;;;;;;2.27;1.70;;;12.20;99.90;;;;;;5032464;28;20451;-47
2022/09/27 11:46:20;;;;;;;2.23;1.30;;;12.30;99.90;;;;;;5031384;28;20981;-47
2022/09/27 11:49:22;;;;;;;2.53;1.70;;;12.20;99.90;;;;;;5032690;28;20457;-46
2022/09/27 11:52:18;;;;;;;2.03;1.83;;;12.20;99.90;;;;;;5032676;28;20440;-50
2022/09/27 11:55:00;;;;;;;1.90;1.63;;;12.30;99.90;;;;;;5030127;28;20416;-51
2022/09/27 11:57:40;;;;;;;2.30;2.10;;;12.30;99.90;;;;;;5032352;28;20467;-47
2022/09/27 12:00:39;;;;;;;2.50;2.30;;;12.20;99.90;;;;;;5032734;28;20436;-49
2022/09/27 12:03:08;;;;;;;2.90;2.70;;;12.20;99.90;;;;;;5031346;28;20421;-48
2022/09/27 12:06:07;;;;;;;6.47;2.80;;;12.20;99.90;;;;;;5031768;28;20487;-46
2022/09/27 12:08:52;;;;;;;3.20;2.90;;;12.30;99.90;;;;;;5032371;28;20472;-50
2022/09/27 12:11:41;;;;;;;3.70;2.73;;;12.00;99.90;;;;;;5032072;28;20421;-50
2022/09/27 12:14:16;;;;;;;3.43;3.13;;;12.00;99.90;;;;;;5031783;28;20658;-46
2022/09/27 12:16:44;;;;;;;4.17;2.87;;;12.10;99.90;;;;;;5032432;28;20765;-50
2022/09/27 12:19:20;;;;;;;3.70;3.07;;;12.20;99.90;;;;;;5031101;28;20483;-48
2022/09/27 12:21:47;;;;;;;3.10;2.90;;;12.30;99.90;;;;;;5019537;28;20468;-50
2022/09/27 12:24:20;;;;;;;3.70;2.93;;;12.30;99.90;;;;;;5031461;28;20444;-49
2022/09/27 12:26:53;;;;;;;3.43;2.60;;;12.30;99.90;;;;;;5031922;28;20425;-48
2022/09/27 12:29:25;;;;;;;5.07;2.97;;;12.30;99.90;;;;;;5032000;28;21017;-47
2022/09/27 12:32:13;;;;;;;3.13;2.40;;;12.40;99.90;;;;;;5031878;28;20421;-49
2022/09/27 12:34:55;;;;;;;3.77;2.23;;;12.40;99.90;;;;;;5031307;28;20686;-47
2022/09/27 12:37:47;;;;;;;3.33;2.70;;;12.50;99.90;;;;;;5031652;28;20433;-47
2022/09/27 12:40:24;;;;;;;3.30;2.70;;;12.40;99.90;;;;;;5031831;28;20986;-49
2022/09/27 12:43:05;;;;;;;4.50;2.70;;;12.40;99.90;;;;;;5031332;28;20479;-47
2022/09/27 12:46:07;;;;;;;2.53;2.33;;;12.40;99.90;;;;;;5031586;28;20426;-47
2022/09/27 12:48:55;;;;;;;5.50;3.60;;;12.30;99.90;;;;;;5030542;28;20551;-48
2022/09/27 12:51:23;;;;;;;5.20;3.20;;;12.20;99.90;;;;;;5022224;28;20422;-46
2022/09/27 12:54:18;;;;;;;5.10;3.40;;;12.20;99.90;;;;;;5029385;28;21010;-48
2022/09/27 12:57:05;;;;;;;3.13;2.93;;;12.00;99.90;;;;;;5031762;28;20875;-49
2022/09/27 12:59:46;;;;;;;4.30;3.30;;;12.00;99.90;;;;;;5031538;28;20778;-48
2022/09/27 13:02:27;;;;;;;2.30;2.10;;;11.90;99.90;;;;;;5031201;28;20425;-48
2022/09/27 13:05:29;;;;;;;3.43;1.70;;;11.80;99.90;;;;;;5030893;28;20442;-51
2022/09/27 13:08:53;;;;;;;2.97;2.17;;;11.80;99.90;;;;;;5024966;28;20499;-47
2022/09/27 13:11:44;;;;;;;2.67;2.47;;;11.70;99.90;;;;;;5028257;28;20436;-47
2022/09/27 13:14:20;;;;;;;5.50;3.00;;;11.60;99.90;;;;;;5001289;28;20417;-48
2022/09/27 13:16:48;;;;;;;4.40;3.87;;;11.60;99.90;;;;;;5021572;28;20504;-49
2022/09/27 13:19:34;;;;;;;7.50;3.90;;;11.60;99.90;;;;;;5031247;28;20429;-47